Time;durP1;ratioP1;P1;durP2;ratioP2;P2;SDS_P1;SDS_P2;PMS_P1;PMS_P2;Temp;Humidity;BMP_temperature;BMP_pressure;BME280_temperature;BME280_humidity;BME280_pressure;Samples;Min_cycle;Max_cycle;Signal;HPM_P1;HPM_P2
2023/07/26 00:01:41;;;;;;;10.23;4.50;;;13.60;64.20;;;;;;5057633;28;46475;-79
2023/07/26 00:04:07;;;;;;;12.73;4.60;;;13.60;64.40;;;;;;5057129;28;46392;-80
2023/07/26 00:06:33;;;;;;;6.83;4.33;;;13.60;64.40;;;;;;5058545;28;46844;-81
2023/07/26 00:08:59;;;;;;;14.07;4.63;;;13.50;64.30;;;;;;5058446;28;47108;-81
2023/07/26 00:11:24;;;;;;;8.40;4.50;;;13.50;65.60;;;;;;5060967;28;46860;-79
2023/07/26 00:13:50;;;;;;;10.47;4.87;;;13.60;64.50;;;;;;5060317;28;46095;-80
2023/07/26 00:16:15;;;;;;;9.97;5.30;;;13.60;64.30;;;;;;5058166;28;46823;-80
2023/07/26 00:18:41;;;;;;;12.13;6.10;;;13.60;64.10;;;;;;5062737;28;47140;-79
2023/07/26 00:21:07;;;;;;;9.97;5.87;;;13.60;64.00;;;;;;5044863;28;46519;-81
2023/07/26 00:23:32;;;;;;;12.20;6.13;;;13.70;64.10;;;;;;5065517;28;46431;-79
2023/07/26 00:25:58;;;;;;;12.00;5.50;;;13.60;64.00;;;;;;5059042;28;47051;-79
2023/07/26 00:28:24;;;;;;;9.40;5.10;;;13.60;64.00;;;;;;5058167;28;47127;-81
2023/07/26 00:30:49;;;;;;;17.60;5.77;;;13.60;64.00;;;;;;5040681;28;46472;-79
2023/07/26 00:33:15;;;;;;;10.83;6.00;;;13.60;63.90;;;;;;5055108;28;46459;-78
2023/07/26 00:35:42;;;;;;;10.00;5.80;;;13.60;63.80;;;;;;5058303;28;46483;-79
2023/07/26 00:38:09;;;;;;;10.73;6.40;;;13.50;64.10;;;;;;5056764;28;47092;-77
2023/07/26 00:40:36;;;;;;;13.43;5.67;;;13.50;64.10;;;;;;5056042;28;46490;-79
2023/07/26 00:43:01;;;;;;;8.27;4.77;;;13.50;64.10;;;;;;5058880;28;46761;-77
2023/07/26 00:45:29;;;;;;;9.27;5.60;;;13.50;63.90;;;;;;5054183;28;46576;-77
2023/07/26 00:47:55;;;;;;;12.03;6.00;;;13.50;63.90;;;;;;5057394;28;46516;-78
2023/07/26 00:50:21;;;;;;;14.13;5.57;;;13.50;64.10;;;;;;5057013;28;46438;-78
2023/07/26 00:52:47;;;;;;;9.00;5.37;;;13.50;64.30;;;;;;5057056;28;46597;-79
2023/07/26 00:55:14;;;;;;;10.10;5.73;;;13.40;64.20;;;;;;5058045;28;46449;-78
2023/07/26 00:57:42;;;;;;;11.83;5.60;;;13.50;64.20;;;;;;5055680;28;46809;-77
2023/07/26 01:00:08;;;;;;;12.73;6.10;;;13.50;64.10;;;;;;5039704;28;46740;-77
2023/07/26 01:02:34;;;;;;;11.27;5.20;;;13.50;64.30;;;;;;5057515;28;46773;-77
2023/07/26 01:04:59;;;;;;;10.77;5.67;;;13.50;64.50;;;;;;5057457;28;46390;-80
2023/07/26 01:07:31;;;;;;;8.43;6.03;;;13.50;64.50;;;;;;5057498;28;46536;-77
2023/07/26 01:10:09;;;;;;;13.30;5.27;;;13.50;64.40;;;;;;5039665;28;46440;-78
2023/07/26 01:12:42;;;;;;;11.83;6.30;;;13.50;64.30;;;;;;5056913;28;46561;-79
2023/07/26 01:15:12;;;;;;;10.30;5.83;;;13.50;64.00;;;;;;5058734;28;46422;-79
2023/07/26 01:17:38;;;;;;;10.40;6.47;;;13.50;64.00;;;;;;5060982;28;46437;-78
2023/07/26 01:20:04;;;;;;;10.30;5.73;;;13.50;63.90;;;;;;5061041;28;47788;-78
2023/07/26 01:22:30;;;;;;;9.57;5.90;;;13.50;63.80;;;;;;5045345;28;46706;-79
2023/07/26 01:24:56;;;;;;;8.30;6.03;;;13.60;63.80;;;;;;5061231;28;46421;-77
2023/07/26 01:27:22;;;;;;;8.83;6.30;;;13.50;63.70;;;;;;5061852;28;46785;-79
2023/07/26 01:29:51;;;;;;;10.90;6.30;;;13.50;63.80;;;;;;5063679;28;46477;-79
2023/07/26 01:32:20;;;;;;;12.20;6.67;;;13.60;63.80;;;;;;5060757;28;46527;-78
2023/07/26 01:34:46;;;;;;;17.07;7.00;;;13.70;63.70;;;;;;5061774;28;46942;-76
2023/07/26 01:37:13;;;;;;;12.57;6.97;;;13.60;63.80;;;;;;5061411;28;46794;-76
2023/07/26 01:39:39;;;;;;;12.73;6.90;;;13.70;63.60;;;;;;5059911;28;46444;-78
2023/07/26 01:42:05;;;;;;;12.23;8.03;;;13.70;63.30;;;;;;5060790;28;45853;-78
2023/07/26 01:44:37;;;;;;;15.67;6.87;;;13.70;64.50;;;;;;5063314;28;46493;-77
2023/07/26 01:47:03;;;;;;;11.63;6.80;;;13.70;63.30;;;;;;5059244;28;47404;-79
2023/07/26 01:49:28;;;;;;;18.17;6.80;;;13.70;63.20;;;;;;5060084;28;46356;-78
2023/07/26 01:51:54;;;;;;;11.40;6.43;;;13.70;63.10;;;;;;5059379;28;46470;-79
2023/07/26 01:54:20;;;;;;;11.73;6.67;;;13.70;62.90;;;;;;5058916;28;46597;-78
2023/07/26 01:56:45;;;;;;;14.63;7.00;;;13.80;62.90;;;;;;5061017;28;46539;-79
2023/07/26 01:59:11;;;;;;;13.87;7.33;;;13.80;63.20;;;;;;5058604;28;46427;-79
2023/07/26 02:01:36;;;;;;;12.00;7.00;;;13.70;62.90;;;;;;5060823;28;46617;-78
2023/07/26 02:04:02;;;;;;;10.23;6.47;;;13.70;63.00;;;;;;5061400;28;46399;-78
2023/07/26 02:06:28;;;;;;;12.53;6.93;;;13.80;63.10;;;;;;5042953;28;48279;-79
2023/07/26 02:08:53;;;;;;;10.57;6.70;;;13.70;63.20;;;;;;5061058;28;46986;-78
2023/07/26 02:11:19;;;;;;;13.80;7.60;;;13.70;63.20;;;;;;5058071;28;46732;-77
2023/07/26 02:13:44;;;;;;;11.23;7.70;;;13.80;64.20;;;;;;5042494;28;46314;-77
2023/07/26 02:16:10;;;;;;;9.83;7.40;;;13.70;63.00;;;;;;5059254;28;46970;-77
2023/07/26 02:18:35;;;;;;;13.47;7.83;;;13.80;62.90;;;;;;5060886;28;46412;-77
2023/07/26 02:21:01;;;;;;;10.80;8.20;;;13.80;62.90;;;;;;5060281;28;46435;-78
2023/07/26 02:23:26;;;;;;;12.47;7.97;;;13.80;62.80;;;;;;5062491;28;46512;-78
2023/07/26 02:25:52;;;;;;;12.80;8.97;;;13.80;62.70;;;;;;5040042;28;49251;-76
2023/07/26 02:28:17;;;;;;;12.30;8.50;;;13.80;62.80;;;;;;5057499;28;46668;-77
2023/07/26 02:30:43;;;;;;;13.90;8.90;;;13.80;62.70;;;;;;5061865;28;46427;-77
2023/07/26 02:33:09;;;;;;;15.27;8.90;;;13.90;63.80;;;;;;5062916;28;46622;-77
2023/07/26 02:35:34;;;;;;;12.03;8.57;;;13.90;62.40;;;;;;5059243;28;46418;-78
2023/07/26 02:38:00;;;;;;;20.03;10.30;;;13.90;62.40;;;;;;5060570;28;46515;-77
2023/07/26 02:40:25;;;;;;;18.27;10.53;;;13.90;62.50;;;;;;5061543;28;46368;-78
2023/07/26 02:42:51;;;;;;;24.20;10.60;;;13.80;62.70;;;;;;5059992;28;46493;-78
2023/07/26 02:45:16;;;;;;;18.63;10.93;;;13.80;62.80;;;;;;5058702;28;46000;-78
2023/07/26 02:47:42;;;;;;;16.00;10.33;;;13.90;62.80;;;;;;5061567;28;46426;-77
2023/07/26 02:50:08;;;;;;;17.33;11.50;;;13.80;63.10;;;;;;5058345;28;46824;-78
2023/07/26 02:52:33;;;;;;;17.77;11.60;;;13.80;63.30;;;;;;5056250;28;46815;-78
2023/07/26 02:54:59;;;;;;;19.67;12.57;;;13.70;63.40;;;;;;5058297;28;46540;-78
2023/07/26 02:57:24;;;;;;;22.20;13.47;;;13.70;63.80;;;;;;5058803;28;46515;-78
2023/07/26 02:59:50;;;;;;;18.03;12.27;;;13.70;63.80;;;;;;5058602;28;46699;-77
2023/07/26 03:02:16;;;;;;;23.40;12.97;;;13.70;63.80;;;;;;5057768;28;46444;-78
2023/07/26 03:04:41;;;;;;;21.67;12.80;;;13.70;63.80;;;;;;5040273;28;48302;-77
2023/07/26 03:07:07;;;;;;;26.17;12.57;;;13.70;63.70;;;;;;5041996;28;46837;-78
2023/07/26 03:09:33;;;;;;;26.20;13.33;;;13.70;63.80;;;;;;5058785;28;45978;-78
2023/07/26 03:11:58;;;;;;;29.93;13.40;;;13.70;63.60;;;;;;5060289;28;46557;-78
2023/07/26 03:14:24;;;;;;;22.77;14.17;;;13.70;63.70;;;;;;5039465;28;48344;-78
2023/07/26 03:16:49;;;;;;;18.47;13.20;;;13.70;63.80;;;;;;5042113;28;46751;-76
2023/07/26 03:19:15;;;;;;;28.47;14.50;;;13.70;63.90;;;;;;5059807;28;46407;-78
2023/07/26 03:21:41;;;;;;;23.43;14.80;;;13.70;63.70;;;;;;5058047;28;46417;-79
2023/07/26 03:24:06;;;;;;;21.90;13.30;;;13.70;64.80;;;;;;5058875;28;46446;-77
2023/07/26 03:26:32;;;;;;;21.90;14.20;;;13.70;63.80;;;;;;5042891;28;46508;-78
2023/07/26 03:28:57;;;;;;;26.97;15.57;;;13.70;65.10;;;;;;5059608;28;47461;-77
2023/07/26 03:31:23;;;;;;;22.93;14.53;;;13.70;64.10;;;;;;5058473;28;46610;-78
2023/07/26 03:33:48;;;;;;;25.70;14.37;;;13.60;64.10;;;;;;5061728;28;47234;-79
2023/07/26 03:36:14;;;;;;;24.80;16.47;;;13.60;64.30;;;;;;5057015;28;47224;-77
2023/07/26 03:38:40;;;;;;;29.13;16.10;;;13.60;64.20;;;;;;5056154;28;46748;-78
2023/07/26 03:41:05;;;;;;;25.60;15.37;;;13.60;64.20;;;;;;5057451;28;46619;-76
2023/07/26 03:43:31;;;;;;;27.43;15.33;;;13.60;64.10;;;;;;5059738;28;46704;-78
2023/07/26 03:45:56;;;;;;;24.33;16.23;;;13.50;64.20;;;;;;5040046;28;46519;-78
2023/07/26 03:48:22;;;;;;;24.00;15.67;;;13.50;64.40;;;;;;5060175;28;46524;-79
2023/07/26 03:50:47;;;;;;;28.13;16.10;;;13.50;64.50;;;;;;5056885;28;46856;-78
2023/07/26 03:53:13;;;;;;;28.80;17.03;;;13.40;64.60;;;;;;5057129;28;46529;-77
2023/07/26 03:55:38;;;;;;;28.07;17.27;;;13.50;64.50;;;;;;5040682;28;46473;-80
2023/07/26 03:58:04;;;;;;;24.67;16.10;;;13.50;64.90;;;;;;5057859;28;46581;-81
2023/07/26 04:00:30;;;;;;;28.03;17.47;;;13.40;64.80;;;;;;5059947;28;46172;-78
2023/07/26 04:02:55;;;;;;;23.03;16.97;;;13.50;64.60;;;;;;5058885;28;47572;-78
2023/07/26 04:05:21;;;;;;;23.17;15.90;;;13.50;64.60;;;;;;5056061;28;46434;-78
2023/07/26 04:07:46;;;;;;;37.43;15.53;;;13.50;64.40;;;;;;5058000;28;46424;-78
2023/07/26 04:10:12;;;;;;;24.33;16.10;;;13.50;64.40;;;;;;5058047;28;46518;-78
2023/07/26 04:12:37;;;;;;;26.23;16.57;;;13.50;64.50;;;;;;5057872;28;46306;-79
2023/07/26 04:15:03;;;;;;;24.93;14.93;;;13.50;64.30;;;;;;5061455;28;46524;-78
2023/07/26 04:17:29;;;;;;;27.27;16.30;;;13.50;64.30;;;;;;5059253;28;46842;-78
2023/07/26 04:19:54;;;;;;;26.97;16.10;;;13.50;64.30;;;;;;5041721;28;47310;-79
2023/07/26 04:22:20;;;;;;;25.43;15.73;;;13.60;64.30;;;;;;5056337;28;46511;-78
2023/07/26 04:24:46;;;;;;;21.87;15.40;;;13.60;64.30;;;;;;5058405;28;46652;-78
2023/07/26 04:27:11;;;;;;;25.00;15.10;;;13.60;64.30;;;;;;5058889;28;46458;-79
2023/07/26 04:29:37;;;;;;;27.10;15.37;;;13.60;64.30;;;;;;5039159;28;46483;-78
2023/07/26 04:32:03;;;;;;;22.80;15.17;;;13.60;64.20;;;;;;5058157;28;46699;-79
2023/07/26 04:34:29;;;;;;;26.03;15.53;;;13.60;64.20;;;;;;5058062;28;46384;-76
2023/07/26 04:36:54;;;;;;;22.63;15.03;;;13.60;64.10;;;;;;5060511;28;46706;-78
2023/07/26 04:39:20;;;;;;;25.87;15.23;;;13.70;64.20;;;;;;5058761;28;46692;-78
2023/07/26 04:41:45;;;;;;;23.33;15.60;;;13.70;64.30;;;;;;5055583;28;46724;-79
2023/07/26 04:44:11;;;;;;;27.27;16.73;;;13.30;63.80;;;;;;5055901;28;46495;-78
2023/07/26 04:46:36;;;;;;;24.70;15.90;;;13.60;63.80;;;;;;5056598;28;46859;-78
2023/07/26 04:49:02;;;;;;;25.57;15.83;;;13.70;63.80;;;;;;5056751;28;46128;-78
2023/07/26 04:51:28;;;;;;;24.47;15.20;;;13.70;63.70;;;;;;5059513;28;46147;-76
2023/07/26 04:53:53;;;;;;;27.87;15.90;;;13.70;63.60;;;;;;5060695;28;46919;-79
2023/07/26 04:56:19;;;;;;;29.13;16.33;;;13.70;63.70;;;;;;5039841;28;46759;-78
2023/07/26 04:58:44;;;;;;;25.30;14.90;;;13.70;63.50;;;;;;5061441;28;46478;-78
2023/07/26 05:01:10;;;;;;;28.87;16.20;;;13.70;63.50;;;;;;5059923;28;47332;-78
2023/07/26 05:03:38;;;;;;;24.10;14.80;;;13.70;63.50;;;;;;5061938;28;46406;-79
2023/07/26 05:06:03;;;;;;;25.20;15.60;;;13.70;63.60;;;;;;5062800;28;46682;-80
2023/07/26 05:08:29;;;;;;;19.23;14.17;;;13.60;63.70;;;;;;5043091;28;46481;-81
2023/07/26 05:10:54;;;;;;;27.97;16.00;;;13.70;64.10;;;;;;5061695;28;47016;-78
2023/07/26 05:13:20;;;;;;;23.03;15.00;;;13.60;63.70;;;;;;5061795;28;46502;-79
2023/07/26 05:15:46;;;;;;;24.53;15.57;;;13.60;64.00;;;;;;5062695;28;46504;-80
2023/07/26 05:18:14;;;;;;;23.80;14.90;;;13.60;64.20;;;;;;5063065;28;46814;-79
2023/07/26 05:20:40;;;;;;;20.93;13.73;;;13.60;64.10;;;;;;5058769;28;48399;-78
2023/07/26 05:23:06;;;;;;;21.97;13.37;;;13.60;64.00;;;;;;5041716;28;46659;-80
2023/07/26 05:25:32;;;;;;;20.90;12.50;;;13.60;64.10;;;;;;5060897;28;46449;-78
2023/07/26 05:27:57;;;;;;;26.10;12.97;;;13.50;64.00;;;;;;5061616;28;46194;-78
2023/07/26 05:30:23;;;;;;;24.73;12.13;;;13.50;64.00;;;;;;5060352;28;47331;-79
2023/07/26 05:32:48;;;;;;;16.37;10.57;;;13.60;63.90;;;;;;5062454;28;46498;-77
2023/07/26 05:35:16;;;;;;;20.70;11.10;;;13.60;63.60;;;;;;5060549;28;46649;-77
2023/07/26 05:37:41;;;;;;;14.20;9.50;;;13.60;63.50;;;;;;5038959;28;46491;-78
2023/07/26 05:40:07;;;;;;;15.30;8.80;;;13.70;63.40;;;;;;5058290;28;47182;-80
2023/07/26 05:42:33;;;;;;;11.90;7.63;;;13.70;63.00;;;;;;5058397;28;46522;-79
2023/07/26 05:44:59;;;;;;;10.83;6.73;;;13.70;62.80;;;;;;5042042;28;46547;-80
2023/07/26 05:47:25;;;;;;;13.70;8.10;;;13.70;62.50;;;;;;5045988;28;46546;-86
2023/07/26 05:49:50;;;;;;;12.17;6.90;;;13.80;62.30;;;;;;5056474;28;47053;-80
2023/07/26 05:52:16;;;;;;;8.90;5.83;;;13.80;62.00;;;;;;5055079;28;46760;-79
2023/07/26 05:54:42;;;;;;;10.43;5.20;;;13.70;61.00;;;;;;5058826;28;46677;-80
2023/07/26 05:57:08;;;;;;;10.13;5.27;;;13.70;62.10;;;;;;5058310;28;46662;-82
2023/07/26 05:59:34;;;;;;;7.83;5.70;;;13.70;62.00;;;;;;5037613;28;48367;-84
2023/07/26 06:02:00;;;;;;;13.77;5.80;;;14.00;62.10;;;;;;5056934;28;47076;-80
2023/07/26 06:04:28;;;;;;;8.93;5.70;;;13.80;61.40;;;;;;5048674;28;46878;-78
2023/07/26 06:06:55;;;;;;;10.93;5.97;;;13.90;61.30;;;;;;5062384;28;46539;-81
2023/07/26 06:09:21;;;;;;;9.60;5.90;;;14.00;61.10;;;;;;5042600;28;48503;-81
2023/07/26 06:11:47;;;;;;;10.37;6.00;;;14.10;60.80;;;;;;5059764;28;46438;-82
2023/07/26 06:14:12;;;;;;;10.40;5.53;;;14.30;60.40;;;;;;5061456;28;45925;-81
2023/07/26 06:16:38;;;;;;;13.60;6.57;;;14.30;60.50;;;;;;5057709;28;46710;-84
2023/07/26 06:19:03;;;;;;;9.97;6.37;;;14.30;60.30;;;;;;5056281;28;49527;-82
2023/07/26 06:21:29;;;;;;;9.90;6.40;;;14.30;60.20;;;;;;5057906;28;46379;-83
2023/07/26 06:23:55;;;;;;;14.97;7.40;;;14.30;60.10;;;;;;5060732;28;46559;-85
2023/07/26 06:26:20;;;;;;;10.60;6.37;;;14.40;60.10;;;;;;5060830;28;46537;-82
2023/07/26 06:28:46;;;;;;;11.87;8.20;;;14.40;60.30;;;;;;5061490;28;47358;-83
2023/07/26 06:31:12;;;;;;;12.03;7.70;;;14.40;60.30;;;;;;5062280;28;46760;-83
2023/07/26 06:33:37;;;;;;;14.43;8.17;;;14.40;60.10;;;;;;5059568;28;46550;-86
2023/07/26 06:36:03;;;;;;;14.27;8.00;;;14.60;60.30;;;;;;5038817;28;46421;-85
2023/07/26 06:38:28;;;;;;;11.53;8.47;;;14.50;60.10;;;;;;5057475;28;47817;-82
2023/07/26 06:40:54;;;;;;;11.23;8.30;;;14.50;60.00;;;;;;5062229;28;46793;-84
2023/07/26 06:43:20;;;;;;;14.90;8.83;;;14.60;60.00;;;;;;5056468;28;46542;-80
2023/07/26 06:45:46;;;;;;;12.33;8.87;;;14.80;60.30;;;;;;5058619;28;46510;-82
2023/07/26 06:48:12;;;;;;;16.27;9.97;;;14.60;60.10;;;;;;5057471;28;46969;-82
2023/07/26 06:50:39;;;;;;;14.17;9.47;;;14.60;60.00;;;;;;5056958;28;46181;-83
2023/07/26 06:53:05;;;;;;;16.77;9.03;;;14.70;59.90;;;;;;5041068;28;46579;-84
2023/07/26 06:55:32;;;;;;;19.03;9.57;;;14.80;60.00;;;;;;5055901;28;46595;-82
2023/07/26 06:57:58;;;;;;;12.00;8.70;;;14.80;59.70;;;;;;5057840;28;47487;-81
2023/07/26 07:00:24;;;;;;;12.23;8.83;;;14.90;59.50;;;;;;5057866;28;46252;-81
2023/07/26 07:02:55;;;;;;;15.50;8.77;;;15.00;59.50;;;;;;5057763;28;46622;-82
2023/07/26 07:05:20;;;;;;;17.33;8.07;;;14.90;59.40;;;;;;5057990;28;46650;-81
2023/07/26 07:07:46;;;;;;;10.20;6.50;;;15.00;59.40;;;;;;5056851;28;49239;-84
2023/07/26 07:10:11;;;;;;;10.47;6.20;;;15.00;59.70;;;;;;5057340;28;46430;-82
2023/07/26 07:12:37;;;;;;;9.00;5.77;;;14.90;59.60;;;;;;5056806;28;46372;-81
2023/07/26 07:15:03;;;;;;;7.90;4.63;;;14.80;59.50;;;;;;5058483;28;46773;-80
2023/07/26 07:17:29;;;;;;;7.33;5.53;;;14.70;59.60;;;;;;5056277;28;47358;-84
2023/07/26 07:19:55;;;;;;;7.63;5.27;;;14.70;59.80;;;;;;5057497;28;46608;-84
2023/07/26 07:22:21;;;;;;;10.87;5.17;;;14.60;60.00;;;;;;5039968;28;46485;-85
2023/07/26 07:24:47;;;;;;;7.27;4.80;;;14.50;60.00;;;;;;5049372;28;46355;-85
2023/07/26 07:27:12;;;;;;;9.43;4.20;;;14.40;60.00;;;;;;5068341;28;46928;-80
2023/07/26 07:29:38;;;;;;;8.57;3.90;;;14.40;60.00;;;;;;5061966;28;46856;-84
2023/07/26 07:32:04;;;;;;;8.90;4.83;;;14.50;59.80;;;;;;5059493;28;46334;-85
2023/07/26 07:34:30;;;;;;;9.67;4.87;;;14.50;59.40;;;;;;5060139;28;46352;-86
2023/07/26 07:36:56;;;;;;;7.80;4.73;;;14.60;59.20;;;;;;5065673;28;47575;-83
2023/07/26 07:39:21;;;;;;;6.00;4.60;;;14.80;58.70;;;;;;5058924;28;46423;-84
2023/07/26 07:41:47;;;;;;;6.87;4.20;;;15.20;58.00;;;;;;5063088;28;45960;-83
2023/07/26 07:44:12;;;;;;;6.03;4.07;;;15.30;57.30;;;;;;5061839;28;46554;-85
2023/07/26 07:46:38;;;;;;;6.40;4.30;;;15.50;56.70;;;;;;5040210;28;48049;-86
2023/07/26 07:49:05;;;;;;;7.13;3.80;;;15.60;58.00;;;;;;5058694;28;46642;-83
2023/07/26 07:51:30;;;;;;;6.23;3.70;;;15.70;56.90;;;;;;5055834;28;46770;-83
2023/07/26 07:53:56;;;;;;;6.10;3.40;;;15.90;57.00;;;;;;5039097;28;46430;-83
2023/07/26 07:56:22;;;;;;;7.80;3.90;;;;;;;;;;5057304;28;46427;-83
2023/07/26 07:58:47;;;;;;;5.43;3.60;;;16.00;55.40;;;;;;5039969;28;46424;-80
2023/07/26 08:01:13;;;;;;;7.70;3.73;;;16.10;56.40;;;;;;5059343;28;46515;-86
2023/07/26 08:03:39;;;;;;;8.60;3.20;;;16.20;56.00;;;;;;5056108;28;46513;-83
2023/07/26 08:06:04;;;;;;;6.57;3.57;;;16.40;55.60;;;;;;5057750;28;46185;-82
2023/07/26 08:08:30;;;;;;;5.03;3.20;;;16.60;55.30;;;;;;5058194;28;46927;-80
2023/07/26 08:10:55;;;;;;;4.90;3.50;;;16.90;54.40;;;;;;5037093;28;46438;-79
2023/07/26 08:13:21;;;;;;;8.73;3.80;;;17.20;53.80;;;;;;5037765;28;46973;-81
2023/07/26 08:15:46;;;;;;;9.77;3.63;;;17.30;53.40;;;;;;5056599;28;46676;-82
2023/07/26 08:18:12;;;;;;;5.90;3.77;;;17.50;52.80;;;;;;5057314;28;46426;-84
2023/07/26 08:20:37;;;;;;;6.27;3.77;;;17.60;52.20;;;;;;5056043;28;46034;-82
2023/07/26 08:23:04;;;;;;;4.83;3.20;;;17.80;51.20;;;;;;5039026;28;46515;-83
2023/07/26 08:25:30;;;;;;;4.60;2.93;;;18.00;50.30;;;;;;5055490;28;47421;-82
2023/07/26 08:27:56;;;;;;;6.13;3.40;;;18.30;49.40;;;;;;5058901;28;46477;-82
2023/07/26 08:30:22;;;;;;;5.83;3.20;;;18.40;48.80;;;;;;5060504;28;45973;-81
2023/07/26 08:32:47;;;;;;;6.90;3.17;;;18.70;47.90;;;;;;5041365;28;46467;-83
2023/07/26 08:35:13;;;;;;;4.93;2.90;;;19.00;46.90;;;;;;5058328;28;47429;-80
2023/07/26 08:37:39;;;;;;;5.13;2.73;;;19.10;46.80;;;;;;5060347;28;46495;-84
2023/07/26 08:40:05;;;;;;;7.00;2.80;;;19.20;45.80;;;;;;5058490;28;46404;-81
2023/07/26 08:42:31;;;;;;;7.60;2.77;;;19.60;44.80;;;;;;5040439;28;46341;-82
2023/07/26 08:44:59;;;;;;;6.67;2.47;;;20.20;40.30;;;;;;5043659;28;48199;-82
2023/07/26 08:47:25;;;;;;;6.40;2.73;;;20.20;41.20;;;;;;5057404;28;46080;-83
2023/07/26 08:49:52;;;;;;;7.23;2.83;;;20.40;40.50;;;;;;5042021;28;46433;-81
2023/07/26 08:52:18;;;;;;;4.77;2.10;;;20.20;35.90;;;;;;5062882;28;46545;-80
2023/07/26 08:54:45;;;;;;;5.57;2.37;;;19.90;36.60;;;;;;5056703;28;47656;-81
2023/07/26 08:57:12;;;;;;;4.93;2.50;;;19.70;36.50;;;;;;5061442;28;46461;-78
2023/07/26 08:59:37;;;;;;;4.10;2.50;;;19.70;36.60;;;;;;5060430;28;46751;-82
2023/07/26 09:02:04;;;;;;;4.33;2.40;;;19.50;35.50;;;;;;5047032;28;46405;-82
2023/07/26 09:04:31;;;;;;;7.17;2.63;;;19.30;35.10;;;;;;5061312;28;46820;-83
2023/07/26 09:07:01;;;;;;;5.83;2.50;;;19.40;35.40;;;;;;5059008;28;46857;-85
2023/07/26 09:09:27;;;;;;;9.40;2.80;;;19.30;33.40;;;;;;5043907;28;46267;-85
2023/07/26 09:11:52;;;;;;;7.50;2.77;;;19.20;33.40;;;;;;5065852;28;46386;-83
2023/07/26 09:14:18;;;;;;;6.23;2.53;;;19.20;33.30;;;;;;5060519;28;46580;-82
2023/07/26 09:16:44;;;;;;;4.87;2.60;;;19.30;33.40;;;;;;5059597;28;46671;-82
2023/07/26 09:19:09;;;;;;;8.33;2.80;;;19.30;34.70;;;;;;5059602;28;46491;-80
2023/07/26 09:21:36;;;;;;;7.03;2.60;;;18.90;31.90;;;;;;5061898;28;46505;-83
2023/07/26 09:24:06;;;;;;;4.77;2.40;;;19.00;33.10;;;;;;5058189;28;46190;-82
2023/07/26 09:26:39;;;;;;;6.40;2.93;;;19.00;33.10;;;;;;5058669;28;46396;-82
2023/07/26 09:29:22;;;;;;;7.33;3.10;;;18.60;32.70;;;;;;5060626;28;46368;-82
2023/07/26 09:31:48;;;;;;;4.87;2.33;;;18.30;33.30;;;;;;5057818;28;46737;-83
2023/07/26 09:34:16;;;;;;;4.43;2.30;;;18.20;34.00;;;;;;5058029;28;46703;-81
2023/07/26 09:36:49;;;;;;;9.07;2.90;;;18.50;33.50;;;;;;5057798;28;47995;-80
2023/07/26 09:39:20;;;;;;;5.43;2.40;;;18.80;33.00;;;;;;5062123;28;46602;-85
2023/07/26 09:41:46;;;;;;;7.50;2.70;;;19.10;33.20;;;;;;5065875;28;47115;-80
2023/07/26 09:44:16;;;;;;;7.63;2.90;;;19.10;32.90;;;;;;5044888;28;47305;-80
2023/07/26 09:46:50;;;;;;;9.13;2.60;;;18.90;32.00;;;;;;5057442;28;46452;-80
2023/07/26 09:49:19;;;;;;;5.70;2.17;;;19.00;33.10;;;;;;5058654;28;45830;-83
2023/07/26 09:51:45;;;;;;;5.10;2.30;;;19.10;33.20;;;;;;5053926;27;46555;-82
2023/07/26 09:54:11;;;;;;;5.43;2.00;;;19.40;32.60;;;;;;5057319;28;49449;-83
2023/07/26 09:56:40;;;;;;;5.90;2.40;;;19.50;31.70;;;;;;5057629;28;47793;-81
2023/07/26 09:59:11;;;;;;;5.13;2.13;;;19.70;30.90;;;;;;5060286;28;46613;-83
2023/07/26 10:01:47;;;;;;;7.27;2.53;;;19.70;31.10;;;;;;5041003;28;46623;-83
2023/07/26 10:04:27;;;;;;;3.80;2.03;;;20.10;30.80;;;;;;5056871;28;46683;-82
2023/07/26 10:06:56;;;;;;;5.47;2.80;;;20.00;31.20;;;;;;5054488;28;46485;-84
2023/07/26 10:09:25;;;;;;;5.53;2.23;;;19.80;29.10;;;;;;5058989;28;46346;-81
2023/07/26 10:11:53;;;;;;;5.13;2.20;;;19.20;28.60;;;;;;5050192;28;45911;-82
2023/07/26 10:14:19;;;;;;;5.63;2.10;;;19.00;28.90;;;;;;5058704;28;46531;-85
2023/07/26 10:16:46;;;;;;;13.57;2.83;;;18.80;28.90;;;;;;5058103;28;45857;-83
2023/07/26 10:19:13;;;;;;;7.20;2.57;;;18.80;29.20;;;;;;5056481;28;46320;-83
2023/07/26 10:21:40;;;;;;;3.90;1.93;;;18.90;29.10;;;;;;5059290;28;46591;-82
2023/07/26 10:24:07;;;;;;;6.20;2.20;;;19.20;28.30;;;;;;5059775;28;46677;-84
2023/07/26 10:26:35;;;;;;;6.20;2.50;;;19.40;27.70;;;;;;5054836;28;46470;-80
2023/07/26 10:29:01;;;;;;;6.80;2.27;;;19.50;27.20;;;;;;5055208;28;46715;-79
2023/07/26 10:31:27;;;;;;;6.37;2.70;;;19.70;27.10;;;;;;5058038;28;46625;-83
2023/07/26 10:33:54;;;;;;;7.23;2.70;;;19.80;26.60;;;;;;5058363;28;46527;-80
2023/07/26 10:36:20;;;;;;;5.87;2.20;;;19.90;26.50;;;;;;5038201;28;46454;-82
2023/07/26 10:38:50;;;;;;;5.87;2.17;;;20.10;26.00;;;;;;5058589;28;45859;-79
2023/07/26 10:41:24;;;;;;;12.07;2.80;;;19.70;26.40;;;;;;5038793;28;46724;-78
2023/07/26 10:44:00;;;;;;;4.13;2.57;;;18.90;28.10;;;;;;5060690;28;47076;-83
2023/07/26 10:46:26;;;;;;;6.00;2.57;;;17.80;30.30;;;;;;5057226;28;46404;-84
2023/07/26 10:48:53;;;;;;;5.23;2.43;;;17.00;32.60;;;;;;5057962;27;46363;-81
2023/07/26 10:51:26;;;;;;;10.63;2.87;;;16.50;34.30;;;;;;5061907;28;46488;-82
2023/07/26 10:53:53;;;;;;;7.77;3.03;;;16.20;36.00;;;;;;5047991;28;49251;-84
2023/07/26 10:56:23;;;;;;;4.80;3.13;;;16.20;38.00;;;;;;5045010;28;46657;-80
2023/07/26 10:58:54;;;;;;;5.17;2.90;;;16.20;39.40;;;;;;5061869;28;46348;-80
2023/07/26 11:01:36;;;;;;;5.33;2.80;;;16.50;39.20;;;;;;5064302;28;46470;-83
2023/07/26 11:04:08;;;;;;;4.63;2.30;;;17.20;37.70;;;;;;5040070;28;48355;-82
2023/07/26 11:06:51;;;;;;;4.03;2.50;;;18.00;36.60;;;;;;5062913;28;46340;-81
2023/07/26 11:09:28;;;;;;;2.40;1.10;;;18.40;34.20;;;;;;5061330;28;46451;-83
2023/07/26 11:11:58;;;;;;;2.80;1.30;;;19.10;33.20;;;;;;5065831;28;46427;-82
2023/07/26 11:14:30;;;;;;;3.90;1.23;;;19.60;30.80;;;;;;5059687;28;46553;-82
2023/07/26 11:16:56;;;;;;;3.20;1.50;;;19.60;29.80;;;;;;5062052;28;46582;-82
2023/07/26 11:19:22;;;;;;;3.40;1.37;;;19.70;29.60;;;;;;5061585;28;46463;-82
2023/07/26 11:21:48;;;;;;;2.87;1.40;;;19.50;30.00;;;;;;5068398;28;46925;-80
2023/07/26 11:24:14;;;;;;;3.57;1.60;;;;;;;;;;5060555;28;46509;-83
2023/07/26 11:26:46;;;;;;;5.53;2.00;;;18.50;29.50;;;;;;5047927;28;46491;-81
2023/07/26 11:29:13;;;;;;;5.47;1.90;;;18.10;32.00;;;;;;5070118;28;46728;-81
2023/07/26 11:31:39;;;;;;;7.20;1.60;;;17.70;31.90;;;;;;5062232;28;46484;-84
2023/07/26 11:34:16;;;;;;;2.97;1.50;;;17.30;31.60;;;;;;5059170;28;46966;-81
2023/07/26 11:36:42;;;;;;;3.40;1.23;;;16.90;32.60;;;;;;5056143;28;46800;-81
2023/07/26 11:39:35;;;;;;;3.70;1.37;;;16.50;32.70;;;;;;5059395;28;46236;-83
2023/07/26 11:42:01;;;;;;;5.13;1.30;;;16.20;33.40;;;;;;5060978;28;45871;-80
2023/07/26 11:44:26;;;;;;;3.63;1.60;;;16.00;34.00;;;;;;5057290;28;47998;-81
2023/07/26 11:46:52;;;;;;;3.90;1.70;;;15.80;34.40;;;;;;5059733;28;45925;-82
2023/07/26 11:49:20;;;;;;;5.37;2.13;;;15.80;34.80;;;;;;5060682;28;46399;-82
2023/07/26 11:51:47;;;;;;;2.80;1.23;;;15.80;35.10;;;;;;5060248;28;46380;-81
2023/07/26 11:54:13;;;;;;;5.23;1.70;;;15.70;35.80;;;;;;5059869;28;46429;-81
2023/07/26 11:56:39;;;;;;;3.60;1.90;;;15.70;36.40;;;;;;5059169;28;46403;-81
2023/07/26 11:59:05;;;;;;;6.60;1.60;;;15.80;36.00;;;;;;5056254;28;46550;-80
2023/07/26 12:01:34;;;;;;;3.47;1.87;;;16.00;35.80;;;;;;5056671;28;47239;-80
2023/07/26 12:04:00;;;;;;;4.60;2.00;;;16.10;35.60;;;;;;5059031;28;46880;-81
2023/07/26 12:06:30;;;;;;;5.47;2.07;;;16.30;35.30;;;;;;5072800;28;45928;-81
2023/07/26 12:09:09;;;;;;;6.90;2.20;;;16.30;34.90;;;;;;5042523;28;46489;-81
2023/07/26 12:11:40;;;;;;;7.07;2.03;;;16.70;35.00;;;;;;5056047;28;48060;-79
2023/07/26 12:14:05;;;;;;;3.80;1.90;;;17.10;34.30;;;;;;5059750;28;46579;-81
2023/07/26 12:16:31;;;;;;;4.00;1.53;;;17.40;33.40;;;;;;5055881;28;45843;-81
2023/07/26 12:19:00;;;;;;;3.23;1.70;;;17.60;32.90;;;;;;5054680;28;46536;-82
2023/07/26 12:21:30;;;;;;;4.57;1.90;;;17.70;33.10;;;;;;5056323;28;46491;-82
2023/07/26 12:24:03;;;;;;;4.60;1.63;;;17.40;33.80;;;;;;5056454;28;47628;-81
2023/07/26 12:26:30;;;;;;;2.80;1.60;;;17.10;34.90;;;;;;5041914;28;46723;-82
2023/07/26 12:28:58;;;;;;;3.00;1.40;;;17.20;34.80;;;;;;5057529;28;46500;-81
2023/07/26 12:31:28;;;;;;;4.57;1.93;;;17.50;34.20;;;;;;5059679;28;46667;-84
2023/07/26 12:33:55;;;;;;;4.67;1.57;;;18.00;33.70;;;;;;5059639;28;47046;-85
2023/07/26 12:36:21;;;;;;;7.60;2.10;;;18.20;33.10;;;;;;5062797;28;46620;-83
2023/07/26 12:38:47;;;;;;;12.57;2.00;;;18.70;32.90;;;;;;5056000;28;47320;-84